createdAt,value
2019-05-20T00:00:37.607Z,12.58
2019-05-20T00:03:08.654Z,12.52
2019-05-20T00:05:40.681Z,12.46
2019-05-20T00:08:10.155Z,12.58
2019-05-20T00:10:41.028Z,12.46
2019-05-20T00:13:10.461Z,12.47
2019-05-20T00:15:38.881Z,12.56
2019-05-20T00:18:11.147Z,12.55
2019-05-20T00:20:39.554Z,12.57
2019-05-20T00:23:08.968Z,12.53
2019-05-20T00:25:37.399Z,12.66
2019-05-20T00:28:05.825Z,12.76
2019-05-20T00:30:36.414Z,12.75
2019-05-20T00:33:09.721Z,12.76
2019-05-20T00:35:36.950Z,12.66
2019-05-20T00:38:05.400Z,12.72
2019-05-20T00:40:33.812Z,12.74
2019-05-20T00:43:06.947Z,12.63
2019-05-20T00:45:37.882Z,12.77
2019-05-20T00:48:16.794Z,12.86
2019-05-20T00:50:46.198Z,12.85
2019-05-20T00:53:14.632Z,12.81
2019-05-20T00:55:43.047Z,12.74
2019-05-20T00:58:12.523Z,12.81
2019-05-20T01:00:41.019Z,12.78
2019-05-20T01:03:09.430Z,12.81
2019-05-20T01:05:37.851Z,12.89
2019-05-20T01:08:06.359Z,11.88
2019-05-20T01:10:34.779Z,12.84
2019-05-20T01:13:09.370Z,12.80
2019-05-20T01:15:43.819Z,12.89
2019-05-20T01:18:12.231Z,12.94
2019-05-20T01:20:40.654Z,12.97
2019-05-20T01:23:09.059Z,12.85
2019-05-20T01:25:37.486Z,12.89
2019-05-20T01:28:06.144Z,12.90
2019-05-20T01:30:34.565Z,13.05
2019-05-20T01:33:13.854Z,12.92
2019-05-20T01:35:36.895Z,12.98
2019-05-20T01:38:08.840Z,13.03
2019-05-20T01:40:41.288Z,13.06
2019-05-20T01:43:08.956Z,12.98
2019-05-20T01:45:39.431Z,12.88
2019-05-20T01:48:07.857Z,12.78
2019-05-20T01:50:40.137Z,12.72
2019-05-20T01:53:08.556Z,12.80
2019-05-20T01:55:41.329Z,12.86
2019-05-20T01:58:12.701Z,12.70
2019-05-20T02:00:41.225Z,12.58
2019-05-20T02:03:12.247Z,12.65
2019-05-20T02:05:40.663Z,12.50
2019-05-20T02:08:09.094Z,12.54
2019-05-20T02:10:40.169Z,12.59
2019-05-20T02:13:12.570Z,12.57
2019-05-20T02:15:42.628Z,12.68
2019-05-20T02:18:13.225Z,12.68
2019-05-20T02:20:42.640Z,12.57
2019-05-20T02:23:14.903Z,12.61
2019-05-20T02:25:46.889Z,12.50
2019-05-20T02:28:21.918Z,12.58
2019-05-20T02:30:50.310Z,12.56
2019-05-20T02:33:18.749Z,12.68
2019-05-20T02:35:48.233Z,12.69
2019-05-20T02:38:22.224Z,12.75
2019-05-20T02:40:53.124Z,12.66
2019-05-20T02:43:21.641Z,12.61
2019-05-20T02:45:50.117Z,12.73
2019-05-20T02:48:18.529Z,12.66
2019-05-20T02:50:48.068Z,12.65
2019-05-20T02:53:16.471Z,12.74
2019-05-20T02:55:44.921Z,12.67
2019-05-20T02:58:15.866Z,12.70
2019-05-20T03:00:44.361Z,12.84
2019-05-20T03:03:13.833Z,12.74
2019-05-20T03:05:42.261Z,12.80
2019-05-20T03:08:13.185Z,12.84
2019-05-20T03:10:41.887Z,12.86
2019-05-20T03:13:12.303Z,12.83
2019-05-20T03:15:49.581Z,12.86
2019-05-20T03:18:19.059Z,12.83
2019-05-20T03:20:48.429Z,12.75
2019-05-20T03:23:19.397Z,12.87
2019-05-20T03:25:47.831Z,12.80
2019-05-20T03:28:18.809Z,12.88
2019-05-20T03:30:51.121Z,12.75
2019-05-20T03:33:24.293Z,12.85
2019-05-20T03:36:10.744Z,12.77
2019-05-20T03:38:38.487Z,12.82
2019-05-20T03:41:07.953Z,12.81
2019-05-20T03:43:36.381Z,12.76
2019-05-20T03:46:04.805Z,12.79
2019-05-20T03:48:35.859Z,12.63
2019-05-20T03:51:06.731Z,12.75
2019-05-20T03:53:35.177Z,12.92
2019-05-20T03:56:08.692Z,12.91
2019-05-20T03:58:38.062Z,12.91
2019-05-20T04:01:06.493Z,12.81
2019-05-20T04:03:34.902Z,12.84
2019-05-20T04:06:05.319Z,12.81
2019-05-20T04:08:33.765Z,12.89
2019-05-20T04:11:07.035Z,12.90
2019-05-20T04:13:35.464Z,12.92
2019-05-20T04:16:04.961Z,12.89
2019-05-20T04:18:36.077Z,12.88
2019-05-20T04:21:07.204Z,12.79
2019-05-20T04:23:39.161Z,12.90
2019-05-20T04:26:07.597Z,12.84
2019-05-20T04:28:40.799Z,12.83
2019-05-20T04:31:09.207Z,12.92
2019-05-20T04:33:38.942Z,12.84
2019-05-20T04:36:09.450Z,12.97
2019-05-20T04:38:38.944Z,12.92
2019-05-20T04:41:07.360Z,12.92
2019-05-20T04:43:35.857Z,13.03
2019-05-20T04:46:04.269Z,13.16
2019-05-20T04:48:33.778Z,13.16
2019-05-20T04:51:02.264Z,13.24
2019-05-20T04:53:31.675Z,13.23
2019-05-20T04:56:04.372Z,13.26
2019-05-20T04:58:32.873Z,13.32
2019-05-20T05:01:06.916Z,13.41
2019-05-20T05:03:35.960Z,13.29
2019-05-20T05:06:04.471Z,13.38
2019-05-20T05:08:33.801Z,13.37
2019-05-20T05:11:05.707Z,13.30
2019-05-20T05:13:37.113Z,13.27
2019-05-20T05:16:05.600Z,13.30
2019-05-20T05:18:36.543Z,13.34
2019-05-20T05:21:04.954Z,13.20
2019-05-20T05:23:34.913Z,13.05
2019-05-20T05:26:06.308Z,13.04
2019-05-20T05:28:37.884Z,13.08
2019-05-20T05:31:12.535Z,13.16
2019-05-20T05:33:42.598Z,13.18
2019-05-20T05:36:11.084Z,13.25
2019-05-20T05:38:39.526Z,13.26
2019-05-20T05:41:11.071Z,13.22
2019-05-20T05:43:39.144Z,13.21
2019-05-20T05:46:11.045Z,13.26
2019-05-20T05:48:39.461Z,13.43
2019-05-20T05:51:09.072Z,13.34
2019-05-20T05:53:41.802Z,13.36
2019-05-20T05:56:11.870Z,13.39
2019-05-20T05:58:57.403Z,13.30
2019-05-20T06:01:32.135Z,13.36
2019-05-20T06:04:03.122Z,13.46
2019-05-20T06:06:34.960Z,13.48
2019-05-20T06:09:05.363Z,13.37
2019-05-20T06:11:37.504Z,13.29
2019-05-20T06:14:06.985Z,13.45
2019-05-20T06:16:42.220Z,13.63
2019-05-20T06:19:10.442Z,13.72
2019-05-20T06:21:44.071Z,13.83
2019-05-20T06:24:23.213Z,13.81
2019-05-20T06:26:50.720Z,13.63
2019-05-20T06:29:20.124Z,13.56
2019-05-20T06:31:48.541Z,13.48
2019-05-20T06:34:19.124Z,13.47
2019-05-20T06:36:50.610Z,13.47
2019-05-20T06:39:20.929Z,13.55
2019-05-20T06:41:51.757Z,13.71
2019-05-20T06:44:26.946Z,13.81
2019-05-20T06:46:59.282Z,13.82
2019-05-20T06:49:30.176Z,13.96
2019-05-20T06:51:58.583Z,14.07
2019-05-20T06:54:28.033Z,14.28
2019-05-20T06:56:56.504Z,14.49
2019-05-20T06:59:28.695Z,14.48
2019-05-20T07:02:02.201Z,14.49
2019-05-20T07:04:39.877Z,14.44
2019-05-20T07:07:20.400Z,14.52
2019-05-20T07:09:46.328Z,14.55
2019-05-20T07:12:15.755Z,14.60
2019-05-20T07:14:44.140Z,14.63
2019-05-20T07:17:15.049Z,14.60
2019-05-20T07:19:43.458Z,14.74
2019-05-20T07:22:13.696Z,14.70
2019-05-20T07:24:52.354Z,14.75
2019-05-20T07:27:20.337Z,14.75
2019-05-20T07:29:51.240Z,15.03
2019-05-20T07:32:27.080Z,15.18
2019-05-20T07:34:57.935Z,15.15
2019-05-20T07:37:26.403Z,15.27
2019-05-20T07:40:00.907Z,15.16
2019-05-20T07:42:29.334Z,15.17
2019-05-20T07:44:57.848Z,15.38
2019-05-20T07:47:29.228Z,15.29
2019-05-20T07:50:01.830Z,15.48
2019-05-20T07:52:32.887Z,15.48
2019-05-20T07:55:02.116Z,15.33
2019-05-20T07:57:35.710Z,15.46
2019-05-20T08:00:08.386Z,15.49
2019-05-20T08:02:40.105Z,15.46
2019-05-20T08:05:12.362Z,15.42
2019-05-20T08:07:51.894Z,15.61
2019-05-20T08:10:16.580Z,15.51
2019-05-20T08:12:45.005Z,15.67
2019-05-20T08:15:18.434Z,15.80
2019-05-20T08:17:50.385Z,15.76
2019-05-20T08:20:20.016Z,15.70
2019-05-20T08:22:49.555Z,15.68
2019-05-20T08:25:18.370Z,15.71
2019-05-20T08:27:46.827Z,15.70
2019-05-20T08:30:15.236Z,15.82
2019-05-20T08:32:46.865Z,16.02
2019-05-20T08:35:15.280Z,16.12
2019-05-20T08:37:46.332Z,15.97
2019-05-20T08:40:14.966Z,16.21
2019-05-20T08:42:43.384Z,16.26
2019-05-20T08:45:15.978Z,16.56
2019-05-20T08:47:44.410Z,16.59
2019-05-20T08:50:16.341Z,16.67
2019-05-20T08:52:52.818Z,16.77
2019-05-20T08:55:23.146Z,16.80
2019-05-20T08:57:51.719Z,16.77
2019-05-20T09:00:24.111Z,16.68
2019-05-20T09:02:56.237Z,16.56
2019-05-20T09:05:28.847Z,16.53
2019-05-20T09:08:04.839Z,16.40
2019-05-20T09:10:40.376Z,16.24
2019-05-20T09:13:08.327Z,16.33
2019-05-20T09:15:40.587Z,16.11
2019-05-20T09:18:10.214Z,16.10
2019-05-20T09:20:38.675Z,16.26
2019-05-20T09:23:08.953Z,16.13
2019-05-20T09:25:38.475Z,16.23
2019-05-20T09:28:06.946Z,16.25
2019-05-20T09:30:35.328Z,16.33
2019-05-20T09:33:04.269Z,16.25
2019-05-20T09:35:34.514Z,16.28
2019-05-20T09:38:17.720Z,16.44
2019-05-20T09:40:39.589Z,16.37
2019-05-20T09:43:08.566Z,16.44
2019-05-20T09:45:37.068Z,16.27
2019-05-20T09:48:06.114Z,16.37
2019-05-20T09:50:34.775Z,16.29
2019-05-20T09:53:06.783Z,16.39
2019-05-20T09:55:33.746Z,16.50
2019-05-20T09:58:03.462Z,16.68
2019-05-20T10:00:33.086Z,16.64
2019-05-20T10:03:04.501Z,16.60
2019-05-20T10:05:37.215Z,16.68
2019-05-20T10:08:05.168Z,16.66
2019-05-20T10:10:36.379Z,16.89
2019-05-20T10:13:08.162Z,16.65
2019-05-20T10:15:39.457Z,16.67
2019-05-20T10:18:09.630Z,16.88
2019-05-20T10:20:40.525Z,17.13
2019-05-20T10:23:15.660Z,17.22
2019-05-20T10:25:42.776Z,17.08
2019-05-20T10:28:13.708Z,17.19
2019-05-20T10:30:43.133Z,17.13
2019-05-20T10:33:17.737Z,17.24
2019-05-20T10:35:47.203Z,17.25
2019-05-20T10:38:21.906Z,17.53
2019-05-20T10:40:50.382Z,17.43
2019-05-20T10:43:22.310Z,17.41
2019-05-20T10:45:55.816Z,17.53
2019-05-20T10:48:27.862Z,17.74
2019-05-20T10:51:03.387Z,17.88
2019-05-20T10:53:39.809Z,17.50
2019-05-20T10:56:15.745Z,17.50
2019-05-20T10:59:03.483Z,17.32
2019-05-20T11:01:40.456Z,17.31
2019-05-20T11:04:08.877Z,17.23
2019-05-20T11:06:42.093Z,17.33
2019-05-20T11:09:13.998Z,17.44
2019-05-20T11:11:42.107Z,17.39
2019-05-20T11:14:11.519Z,17.62
2019-05-20T11:16:39.981Z,17.47
2019-05-20T11:19:09.479Z,17.72
2019-05-20T11:21:44.666Z,17.93
2019-05-20T11:24:12.093Z,17.88
2019-05-20T11:26:40.610Z,18.22
2019-05-20T11:29:10.317Z,18.24
2019-05-20T11:31:38.730Z,18.21
2019-05-20T11:34:10.980Z,18.15
2019-05-20T11:36:39.421Z,18.13
2019-05-20T11:39:10.365Z,18.27
2019-05-20T11:41:53.011Z,18.58
2019-05-20T11:44:15.848Z,18.86
2019-05-20T11:46:44.305Z,18.89
2019-05-20T11:49:13.757Z,19.16
2019-05-20T11:51:42.200Z,18.99
2019-05-20T11:54:13.067Z,19.10
2019-05-20T11:56:42.702Z,19.08
2019-05-20T11:59:12.902Z,19.23
2019-05-20T12:01:44.216Z,19.45
2019-05-20T12:04:12.784Z,19.40
2019-05-20T12:06:41.194Z,19.72
2019-05-20T12:09:09.641Z,19.73
2019-05-20T12:11:49.616Z,19.98
2019-05-20T12:14:18.045Z,19.74
2019-05-20T12:16:46.491Z,19.86
2019-05-20T12:19:15.917Z,19.84
2019-05-20T12:21:44.333Z,19.96
2019-05-20T12:24:16.985Z,19.72
2019-05-20T12:27:03.104Z,19.64
2019-05-20T12:29:23.268Z,19.52
2019-05-20T12:31:51.692Z,19.39
2019-05-20T12:34:20.816Z,19.32
2019-05-20T12:36:51.211Z,19.59
2019-05-20T12:39:26.952Z,19.91
2019-05-20T12:41:57.823Z,19.77
2019-05-20T12:44:27.136Z,19.88
2019-05-20T12:46:56.614Z,19.98
2019-05-20T12:49:32.232Z,20.05
2019-05-20T12:52:01.768Z,20.29
2019-05-20T12:54:30.221Z,20.66
2019-05-20T12:56:58.641Z,20.52
2019-05-20T12:59:28.027Z,20.58
2019-05-20T13:01:57.558Z,20.88
2019-05-20T13:04:25.991Z,20.91
2019-05-20T13:06:58.176Z,20.92
2019-05-20T13:09:31.311Z,21.08
2019-05-20T13:12:00.326Z,21.19
2019-05-20T13:14:28.697Z,21.24
2019-05-20T13:17:03.433Z,21.25
2019-05-20T13:19:32.310Z,21.53
2019-05-20T13:22:03.378Z,21.63
2019-05-20T13:24:31.895Z,21.28
2019-05-20T13:27:01.339Z,21.28
2019-05-20T13:29:34.726Z,21.45
2019-05-20T13:32:03.175Z,21.65
2019-05-20T13:34:31.608Z,21.36
2019-05-20T13:37:03.802Z,21.39
2019-05-20T13:39:31.509Z,21.34
2019-05-20T13:42:03.431Z,21.36
2019-05-20T13:44:31.877Z,21.40
2019-05-20T13:47:01.234Z,21.37
2019-05-20T13:49:32.047Z,21.28
2019-05-20T13:52:00.459Z,21.28
2019-05-20T13:54:28.944Z,21.26
2019-05-20T13:57:00.557Z,21.18
2019-05-20T13:59:37.478Z,21.28
2019-05-20T14:02:06.908Z,21.38
2019-05-20T14:04:35.379Z,21.22
2019-05-20T14:07:03.815Z,21.34
2019-05-20T14:09:32.284Z,21.12
2019-05-20T14:12:00.691Z,21.16
2019-05-20T14:14:31.612Z,21.15
2019-05-20T14:17:00.107Z,21.27
2019-05-20T14:19:28.644Z,21.53
2019-05-20T14:21:58.077Z,21.81
2019-05-20T14:24:27.574Z,21.84
2019-05-20T14:26:55.998Z,22.10
2019-05-20T14:29:24.442Z,22.06
2019-05-20T14:31:52.871Z,21.96
2019-05-20T14:34:21.272Z,22.29
2019-05-20T14:36:53.752Z,22.50
2019-05-20T14:39:22.186Z,22.11
2019-05-20T14:41:50.631Z,22.21
2019-05-20T14:44:19.043Z,22.27
2019-05-20T14:46:48.478Z,22.18
2019-05-20T14:49:19.082Z,22.01
2019-05-20T14:51:51.957Z,21.78
2019-05-20T14:54:20.877Z,21.61
2019-05-20T14:56:49.305Z,21.11
2019-05-20T14:59:17.768Z,21.18
2019-05-20T15:01:49.823Z,21.20
2019-05-20T15:04:18.323Z,21.09
2019-05-20T15:06:50.799Z,21.08
2019-05-20T15:09:20.770Z,21.03
2019-05-20T15:11:50.133Z,21.12
2019-05-20T15:14:18.561Z,21.44
2019-05-20T15:16:47.098Z,21.65
2019-05-20T15:19:15.538Z,21.41
2019-05-20T15:21:43.980Z,21.51
2019-05-20T15:24:12.518Z,21.72
2019-05-20T15:26:45.792Z,21.96
2019-05-20T15:29:27.695Z,22.22
2019-05-20T15:31:44.370Z,22.39
2019-05-20T15:34:12.781Z,22.33
2019-05-20T15:36:41.234Z,22.26
2019-05-20T15:39:10.855Z,22.14
2019-05-20T15:41:39.470Z,22.16
2019-05-20T15:44:10.517Z,22.06
2019-05-20T15:46:39.327Z,21.94
2019-05-20T15:49:07.877Z,21.85
2019-05-20T15:51:36.328Z,21.67
2019-05-20T15:54:08.009Z,21.65
2019-05-20T15:56:36.606Z,21.70
2019-05-20T15:59:09.260Z,21.90
2019-05-20T16:01:37.903Z,22.18
2019-05-20T16:04:08.447Z,22.19
2019-05-20T16:06:40.955Z,22.11
2019-05-20T16:09:09.641Z,21.81
2019-05-20T16:11:40.484Z,21.67
2019-05-20T16:14:12.047Z,21.67
2019-05-20T16:16:40.491Z,21.76
2019-05-20T16:19:08.989Z,21.68
2019-05-20T16:21:37.425Z,21.58
2019-05-20T16:24:09.749Z,21.76
2019-05-20T16:26:38.229Z,21.76
2019-05-20T16:29:11.884Z,21.70
2019-05-20T16:31:39.691Z,21.73
2019-05-20T16:34:08.171Z,21.76
2019-05-20T16:36:37.892Z,21.73
2019-05-20T16:39:07.375Z,21.74
2019-05-20T16:41:35.918Z,21.63
2019-05-20T16:44:05.368Z,21.64
2019-05-20T16:46:33.790Z,21.57
2019-05-20T16:49:02.285Z,21.50
2019-05-20T16:51:34.508Z,21.42
2019-05-20T16:54:06.167Z,21.48
2019-05-20T16:56:34.520Z,21.51
2019-05-20T16:59:05.452Z,21.49
2019-05-20T17:01:45.578Z,21.55
2019-05-20T17:04:04.155Z,21.32
2019-05-20T17:06:32.605Z,21.34
2019-05-20T17:09:01.042Z,21.36
2019-05-20T17:11:30.438Z,21.42
2019-05-20T17:14:10.546Z,20.88
2019-05-20T17:16:36.740Z,20.98
2019-05-20T17:19:07.839Z,21.02
2019-05-20T17:21:40.668Z,21.06
2019-05-20T17:24:11.639Z,20.92
2019-05-20T17:26:42.736Z,21.05
2019-05-20T17:29:11.152Z,21.08
2019-05-20T17:31:43.290Z,21.08
2019-05-20T17:34:11.731Z,21.27
2019-05-20T17:36:40.151Z,21.28
2019-05-20T17:39:11.281Z,21.26
2019-05-20T17:41:39.772Z,21.27
2019-05-20T17:44:08.408Z,21.40
2019-05-20T17:46:39.823Z,21.32
2019-05-20T17:49:09.723Z,21.28
2019-05-20T17:51:38.160Z,21.09
2019-05-20T17:54:06.993Z,21.04
2019-05-20T17:56:35.865Z,20.90
2019-05-20T17:59:04.752Z,20.81
2019-05-20T18:01:35.848Z,20.72
2019-05-20T18:04:13.318Z,20.56
2019-05-20T18:06:40.811Z,20.27
2019-05-20T18:09:09.821Z,20.27
2019-05-20T18:11:40.779Z,20.18
2019-05-20T18:14:09.353Z,19.98
2019-05-20T18:16:38.348Z,20.07
2019-05-20T18:19:06.829Z,19.92
2019-05-20T18:21:35.622Z,19.87
2019-05-20T18:24:04.285Z,20.01
2019-05-20T18:26:34.006Z,19.76
2019-05-20T18:29:06.326Z,19.71
2019-05-20T18:31:35.009Z,19.60
2019-05-20T18:34:03.797Z,19.77
2019-05-20T18:36:34.288Z,19.72
2019-05-20T18:39:02.701Z,19.67
2019-05-20T18:41:31.314Z,19.58
2019-05-20T18:43:59.901Z,19.60
2019-05-20T18:46:33.560Z,19.49
2019-05-20T18:49:02.116Z,19.41
2019-05-20T18:51:30.585Z,19.30
2019-05-20T18:53:59.135Z,19.25
2019-05-20T18:56:30.427Z,19.10
2019-05-20T18:59:02.899Z,19.16
2019-05-20T19:01:45.790Z,19.11
2019-05-20T19:04:01.649Z,18.96
2019-05-20T19:06:34.104Z,18.92
2019-05-20T19:09:02.885Z,18.70
2019-05-20T19:11:31.670Z,18.60
2019-05-20T19:14:00.265Z,18.54
2019-05-20T19:16:28.887Z,18.48
2019-05-20T19:19:02.234Z,18.08
2019-05-20T19:21:30.858Z,18.02
2019-05-20T19:23:59.357Z,17.95
2019-05-20T19:26:29.093Z,17.84
2019-05-20T19:28:57.550Z,17.83
2019-05-20T19:31:25.980Z,17.80
2019-05-20T19:33:54.407Z,17.82
2019-05-20T19:36:25.342Z,17.81
2019-05-20T19:38:53.816Z,17.74
2019-05-20T19:41:22.401Z,17.61
2019-05-20T19:43:55.097Z,17.52
2019-05-20T19:46:23.566Z,17.45
2019-05-20T19:48:52.146Z,17.35
2019-05-20T19:51:21.626Z,17.13
2019-05-20T19:53:56.681Z,17.08
2019-05-20T19:56:25.127Z,16.96
2019-05-20T19:58:53.548Z,16.77
2019-05-20T20:01:22.005Z,16.65
2019-05-20T20:04:01.195Z,16.57
2019-05-20T20:06:33.688Z,16.55
2019-05-20T20:09:02.129Z,16.60
2019-05-20T20:11:33.143Z,16.63
2019-05-20T20:14:04.017Z,16.68
2019-05-20T20:16:32.479Z,16.71
2019-05-20T20:19:04.956Z,16.64
2019-05-20T20:21:36.141Z,16.61
2019-05-20T20:24:04.641Z,16.48
2019-05-20T20:26:33.099Z,16.41
2019-05-20T20:29:11.323Z,16.36
2019-05-20T20:31:41.148Z,16.38
2019-05-20T20:34:14.978Z,16.47
2019-05-20T20:36:43.446Z,16.29
2019-05-20T20:39:12.936Z,16.41
2019-05-20T20:41:43.877Z,16.59
2019-05-20T20:44:12.464Z,16.74
2019-05-20T20:46:44.791Z,16.82
2019-05-20T20:49:14.745Z,16.82
2019-05-20T20:51:42.600Z,16.82
2019-05-20T20:54:11.082Z,16.89
2019-05-20T20:56:43.089Z,16.75
2019-05-20T20:59:11.680Z,16.70
2019-05-20T21:01:40.202Z,16.65
2019-05-20T21:04:08.626Z,16.69
2019-05-20T21:06:37.832Z,16.69
2019-05-20T21:09:07.012Z,16.80
2019-05-20T21:11:35.412Z,16.78
2019-05-20T21:14:09.565Z,16.80
2019-05-20T21:16:37.972Z,16.87
2019-05-20T21:19:12.006Z,16.91
2019-05-20T21:21:44.183Z,17.09
2019-05-20T21:24:12.606Z,17.11
2019-05-20T21:26:41.102Z,17.07
2019-05-20T21:29:09.580Z,17.07
2019-05-20T21:31:38.005Z,17.12
2019-05-20T21:34:06.411Z,17.10
2019-05-20T21:36:46.901Z,17.07
2019-05-20T21:39:06.118Z,17.04
2019-05-20T21:41:34.534Z,17.05
2019-05-20T21:44:02.976Z,17.06
2019-05-20T21:46:31.413Z,17.04
2019-05-20T21:49:02.215Z,17.00
2019-05-20T21:51:30.685Z,16.96
2019-05-20T21:54:01.641Z,16.92
2019-05-20T21:56:30.083Z,16.90
2019-05-20T21:59:02.768Z,16.82
2019-05-20T22:01:34.187Z,16.78
2019-05-20T22:04:02.715Z,16.78
2019-05-20T22:06:31.181Z,16.76
2019-05-20T22:08:59.650Z,16.68
2019-05-20T22:11:30.904Z,16.69
2019-05-20T22:13:59.467Z,16.60
2019-05-20T22:16:30.456Z,16.67
2019-05-20T22:19:01.336Z,16.70
2019-05-20T22:21:31.457Z,16.71
2019-05-20T22:24:03.951Z,16.71
2019-05-20T22:26:33.375Z,16.74
2019-05-20T22:29:05.621Z,16.73
2019-05-20T22:31:38.072Z,16.78
2019-05-20T22:34:06.478Z,16.77
2019-05-20T22:36:34.921Z,16.80
2019-05-20T22:39:04.360Z,16.85
2019-05-20T22:41:33.883Z,16.89
2019-05-20T22:44:07.646Z,16.88
2019-05-20T22:46:38.714Z,16.80
2019-05-20T22:49:09.662Z,16.87
2019-05-20T22:51:39.059Z,16.95
2019-05-20T22:54:09.945Z,16.97
2019-05-20T22:56:38.358Z,16.93
2019-05-20T22:59:10.745Z,17.01
2019-05-20T23:01:41.724Z,17.05
2019-05-20T23:04:11.928Z,17.01
2019-05-20T23:06:40.402Z,17.04
2019-05-20T23:09:10.793Z,17.19
2019-05-20T23:11:38.989Z,17.18
2019-05-20T23:14:07.433Z,17.18
2019-05-20T23:16:35.929Z,17.20
2019-05-20T23:19:06.729Z,17.21
2019-05-20T23:21:34.507Z,17.22
2019-05-20T23:24:02.929Z,17.17
2019-05-20T23:26:35.412Z,17.16
2019-05-20T23:29:04.007Z,17.08
2019-05-20T23:31:32.417Z,16.99
2019-05-20T23:34:12.155Z,16.95
2019-05-20T23:36:32.011Z,16.89
2019-05-20T23:39:00.466Z,16.82
2019-05-20T23:41:32.928Z,16.85
2019-05-20T23:44:03.662Z,16.87
2019-05-20T23:46:32.035Z,16.79
2019-05-20T23:49:00.445Z,16.73
2019-05-20T23:51:36.198Z,16.81
2019-05-20T23:54:04.658Z,16.75
2019-05-20T23:56:33.059Z,16.71
2019-05-20T23:59:02.743Z,16.68
